sensor_id;sensor_type;location;lat;lon;timestamp;pressure;altitude;pressure_sealevel;temperature;humidity
23417;BME280;11881;42.432;25.632;2022-10-29T00:00:37;100398.34;;;13.17;99.98
23417;BME280;11881;42.432;25.632;2022-10-29T00:03:03;100397.88;;;13.12;100.00
23417;BME280;11881;42.432;25.632;2022-10-29T00:05:28;100392.53;;;13.23;99.98
23417;BME280;11881;42.432;25.632;2022-10-29T00:07:54;100401.06;;;13.06;100.00
23417;BME280;11881;42.432;25.632;2022-10-29T00:10:19;100393.63;;;13.10;100.00
23417;BME280;11881;42.432;25.632;2022-10-29T00:12:44;100394.09;;;13.15;100.00
23417;BME280;11881;42.432;25.632;2022-10-29T00:15:10;100402.00;;;13.16;100.00
23417;BME280;11881;42.432;25.632;2022-10-29T00:17:35;100398.06;;;12.99;100.00
23417;BME280;11881;42.432;25.632;2022-10-29T00:20:01;100399.63;;;13.02;100.00
23417;BME280;11881;42.432;25.632;2022-10-29T00:22:26;100402.16;;;13.03;100.00
23417;BME280;11881;42.432;25.632;2022-10-29T00:24:52;100393.81;;;12.86;100.00
23417;BME280;11881;42.432;25.632;2022-10-29T00:27:17;100390.59;;;12.71;100.00
23417;BME280;11881;42.432;25.632;2022-10-29T00:29:43;100389.03;;;12.57;100.00
23417;BME280;11881;42.432;25.632;2022-10-29T00:32:08;100395.69;;;12.74;100.00
23417;BME280;11881;42.432;25.632;2022-10-29T00:34:34;100386.63;;;12.97;100.00
23417;BME280;11881;42.432;25.632;2022-10-29T00:37:01;100382.63;;;12.92;100.00
23417;BME280;11881;42.432;25.632;2022-10-29T00:39:27;100382.53;;;12.93;100.00
23417;BME280;11881;42.432;25.632;2022-10-29T00:41:54;100386.38;;;13.00;100.00
23417;BME280;11881;42.432;25.632;2022-10-29T00:44:29;100388.75;;;13.15;100.00
23417;BME280;11881;42.432;25.632;2022-10-29T00:47:00;100387.28;;;12.78;100.00
23417;BME280;11881;42.432;25.632;2022-10-29T00:49:27;100383.50;;;12.81;100.00
23417;BME280;11881;42.432;25.632;2022-10-29T00:51:53;100376.91;;;12.96;100.00
23417;BME280;11881;42.432;25.632;2022-10-29T00:54:19;100377.72;;;12.76;100.00
23417;BME280;11881;42.432;25.632;2022-10-29T00:56:51;100373.41;;;12.85;100.00
23417;BME280;11881;42.432;25.632;2022-10-29T00:59:18;100368.63;;;12.99;100.00
23417;BME280;11881;42.432;25.632;2022-10-29T01:01:45;100369.38;;;12.90;100.00
23417;BME280;11881;42.432;25.632;2022-10-29T01:04:11;100370.38;;;12.89;100.00
23417;BME280;11881;42.432;25.632;2022-10-29T01:06:37;100369.25;;;12.92;100.00
23417;BME280;11881;42.432;25.632;2022-10-29T01:09:03;100368.13;;;13.05;100.00
23417;BME280;11881;42.432;25.632;2022-10-29T01:11:51;100363.19;;;12.90;100.00
23417;BME280;11881;42.432;25.632;2022-10-29T01:22:49;100361.91;;;12.73;100.00
23417;BME280;11881;42.432;25.632;2022-10-29T01:31:21;100353.94;;;12.94;100.00
23417;BME280;11881;42.432;25.632;2022-10-29T01:37:02;100344.50;;;12.78;100.00
23417;BME280;11881;42.432;25.632;2022-10-29T01:42:23;100339.91;;;13.01;100.00
23417;BME280;11881;42.432;25.632;2022-10-29T01:47:21;100343.25;;;12.94;100.00
23417;BME280;11881;42.432;25.632;2022-10-29T01:49:56;100332.78;;;12.59;100.00
23417;BME280;11881;42.432;25.632;2022-10-29T01:52:24;100331.50;;;12.42;100.00
23417;BME280;11881;42.432;25.632;2022-10-29T01:54:52;100334.66;;;12.47;100.00
23417;BME280;11881;42.432;25.632;2022-10-29T01:57:34;100332.56;;;12.50;100.00
23417;BME280;11881;42.432;25.632;2022-10-29T02:00:19;100325.97;;;12.66;100.00
23417;BME280;11881;42.432;25.632;2022-10-29T02:05:22;100322.16;;;12.36;100.00
23417;BME280;11881;42.432;25.632;2022-10-29T02:07:55;100327.69;;;12.56;100.00
23417;BME280;11881;42.432;25.632;2022-10-29T02:10:32;100324.94;;;12.78;100.00
23417;BME280;11881;42.432;25.632;2022-10-29T02:13:00;100324.34;;;12.74;100.00
23417;BME280;11881;42.432;25.632;2022-10-29T02:15:38;100318.59;;;12.79;100.00
23417;BME280;11881;42.432;25.632;2022-10-29T02:18:06;100320.63;;;12.87;100.00
23417;BME280;11881;42.432;25.632;2022-10-29T02:20:33;100316.34;;;12.63;100.00
23417;BME280;11881;42.432;25.632;2022-10-29T02:22:59;100321.84;;;12.50;100.00
23417;BME280;11881;42.432;25.632;2022-10-29T02:25:25;100324.50;;;12.62;100.00
23417;BME280;11881;42.432;25.632;2022-10-29T02:27:51;100315.41;;;12.64;100.00
23417;BME280;11881;42.432;25.632;2022-10-29T02:30:16;100315.25;;;12.66;100.00
23417;BME280;11881;42.432;25.632;2022-10-29T02:32:42;100317.13;;;12.54;100.00
23417;BME280;11881;42.432;25.632;2022-10-29T02:35:08;100309.78;;;12.67;100.00
23417;BME280;11881;42.432;25.632;2022-10-29T02:37:33;100306.50;;;12.64;100.00
23417;BME280;11881;42.432;25.632;2022-10-29T02:39:58;100300.34;;;12.52;100.00
23417;BME280;11881;42.432;25.632;2022-10-29T02:42:24;100312.88;;;12.40;100.00
23417;BME280;11881;42.432;25.632;2022-10-29T02:44:50;100308.31;;;12.63;100.00
23417;BME280;11881;42.432;25.632;2022-10-29T02:47:15;100310.84;;;12.76;100.00
23417;BME280;11881;42.432;25.632;2022-10-29T02:49:41;100296.69;;;12.85;100.00
23417;BME280;11881;42.432;25.632;2022-10-29T02:52:06;100299.31;;;12.96;100.00
23417;BME280;11881;42.432;25.632;2022-10-29T02:54:32;100295.16;;;12.83;100.00
23417;BME280;11881;42.432;25.632;2022-10-29T02:56:57;100302.19;;;12.84;100.00
23417;BME280;11881;42.432;25.632;2022-10-29T02:59:23;100298.88;;;12.59;100.00
23417;BME280;11881;42.432;25.632;2022-10-29T03:01:48;100296.81;;;12.51;100.00
23417;BME280;11881;42.432;25.632;2022-10-29T03:04:13;100293.09;;;12.75;100.00
23417;BME280;11881;42.432;25.632;2022-10-29T03:06:39;100303.41;;;12.79;100.00
23417;BME280;11881;42.432;25.632;2022-10-29T03:09:04;100298.00;;;12.70;100.00
23417;BME280;11881;42.432;25.632;2022-10-29T03:11:31;100295.09;;;12.62;100.00
23417;BME280;11881;42.432;25.632;2022-10-29T03:13:56;100302.59;;;12.68;100.00
23417;BME280;11881;42.432;25.632;2022-10-29T03:16:21;100290.91;;;12.48;100.00
23417;BME280;11881;42.432;25.632;2022-10-29T03:18:47;100292.22;;;12.54;100.00
23417;BME280;11881;42.432;25.632;2022-10-29T03:21:12;100294.56;;;12.47;100.00
23417;BME280;11881;42.432;25.632;2022-10-29T03:23:38;100292.50;;;12.39;100.00
23417;BME280;11881;42.432;25.632;2022-10-29T03:26:03;100293.47;;;12.38;100.00
23417;BME280;11881;42.432;25.632;2022-10-29T03:28:29;100295.44;;;12.36;100.00
23417;BME280;11881;42.432;25.632;2022-10-29T03:30:58;100291.78;;;12.37;100.00
23417;BME280;11881;42.432;25.632;2022-10-29T03:33:24;100277.91;;;12.43;100.00
23417;BME280;11881;42.432;25.632;2022-10-29T03:36:04;100280.69;;;12.53;100.00
23417;BME280;11881;42.432;25.632;2022-10-29T03:38:30;100280.69;;;12.53;100.00
23417;BME280;11881;42.432;25.632;2022-10-29T03:40:56;100285.25;;;12.62;100.00
23417;BME280;11881;42.432;25.632;2022-10-29T03:43:22;100283.22;;;12.55;100.00
23417;BME280;11881;42.432;25.632;2022-10-29T03:45:52;100272.44;;;12.45;100.00
23417;BME280;11881;42.432;25.632;2022-10-29T03:48:18;100275.88;;;12.36;100.00
23417;BME280;11881;42.432;25.632;2022-10-29T03:50:43;100275.06;;;12.24;100.00
23417;BME280;11881;42.432;25.632;2022-10-29T03:53:09;100272.75;;;12.19;100.00
23417;BME280;11881;42.432;25.632;2022-10-29T03:55:35;100270.41;;;12.37;100.00
23417;BME280;11881;42.432;25.632;2022-10-29T03:58:00;100276.19;;;12.54;100.00
23417;BME280;11881;42.432;25.632;2022-10-29T04:00:25;100275.84;;;12.47;100.00
23417;BME280;11881;42.432;25.632;2022-10-29T04:02:51;100273.03;;;12.48;100.00
23417;BME280;11881;42.432;25.632;2022-10-29T04:05:16;100275.91;;;12.24;100.00
23417;BME280;11881;42.432;25.632;2022-10-29T04:07:42;100279.56;;;12.12;100.00
23417;BME280;11881;42.432;25.632;2022-10-29T04:10:07;100268.75;;;12.14;100.00
23417;BME280;11881;42.432;25.632;2022-10-29T04:12:33;100270.13;;;12.40;100.00
23417;BME280;11881;42.432;25.632;2022-10-29T04:14:58;100268.84;;;12.67;100.00
23417;BME280;11881;42.432;25.632;2022-10-29T04:17:23;100278.59;;;12.57;100.00
23417;BME280;11881;42.432;25.632;2022-10-29T04:19:49;100266.09;;;12.46;100.00
23417;BME280;11881;42.432;25.632;2022-10-29T04:22:14;100266.56;;;12.51;100.00
23417;BME280;11881;42.432;25.632;2022-10-29T04:24:40;100275.34;;;12.53;100.00
23417;BME280;11881;42.432;25.632;2022-10-29T04:27:05;100274.13;;;12.46;100.00
23417;BME280;11881;42.432;25.632;2022-10-29T04:29:31;100269.50;;;12.48;100.00
23417;BME280;11881;42.432;25.632;2022-10-29T04:31:56;100273.69;;;12.41;100.00
23417;BME280;11881;42.432;25.632;2022-10-29T04:34:21;100274.50;;;12.52;100.00
23417;BME280;11881;42.432;25.632;2022-10-29T04:36:47;100276.72;;;12.36;100.00
23417;BME280;11881;42.432;25.632;2022-10-29T04:39:12;100286.41;;;12.48;100.00
23417;BME280;11881;42.432;25.632;2022-10-29T04:41:38;100276.78;;;12.46;100.00
23417;BME280;11881;42.432;25.632;2022-10-29T04:44:03;100283.69;;;12.60;100.00
23417;BME280;11881;42.432;25.632;2022-10-29T04:46:29;100282.44;;;12.64;100.00
23417;BME280;11881;42.432;25.632;2022-10-29T04:48:54;100274.19;;;12.67;100.00
23417;BME280;11881;42.432;25.632;2022-10-29T04:51:21;100282.94;;;12.58;100.00
23417;BME280;11881;42.432;25.632;2022-10-29T04:53:47;100281.19;;;12.47;100.00
23417;BME280;11881;42.432;25.632;2022-10-29T04:56:13;100287.38;;;12.47;100.00
23417;BME280;11881;42.432;25.632;2022-10-29T04:58:38;100279.59;;;12.44;100.00
23417;BME280;11881;42.432;25.632;2022-10-29T05:01:04;100282.97;;;12.46;100.00
23417;BME280;11881;42.432;25.632;2022-10-29T05:03:31;100285.44;;;12.38;100.00
23417;BME280;11881;42.432;25.632;2022-10-29T05:05:56;100280.44;;;12.45;100.00
23417;BME280;11881;42.432;25.632;2022-10-29T05:08:22;100284.78;;;12.57;100.00
23417;BME280;11881;42.432;25.632;2022-10-29T05:10:47;100288.53;;;12.66;100.00
23417;BME280;11881;42.432;25.632;2022-10-29T05:13:13;100286.19;;;12.72;100.00
23417;BME280;11881;42.432;25.632;2022-10-29T05:15:39;100283.88;;;12.47;100.00
23417;BME280;11881;42.432;25.632;2022-10-29T05:18:05;100286.06;;;12.42;100.00
23417;BME280;11881;42.432;25.632;2022-10-29T05:20:31;100289.09;;;12.37;100.00
23417;BME280;11881;42.432;25.632;2022-10-29T05:25:24;100281.91;;;12.49;100.00
23417;BME280;11881;42.432;25.632;2022-10-29T05:27:49;100285.72;;;12.67;100.00
23417;BME280;11881;42.432;25.632;2022-10-29T05:30:14;100292.13;;;12.76;100.00
23417;BME280;11881;42.432;25.632;2022-10-29T05:32:40;100292.53;;;12.92;100.00
23417;BME280;11881;42.432;25.632;2022-10-29T05:35:05;100296.97;;;13.03;100.00
23417;BME280;11881;42.432;25.632;2022-10-29T05:37:31;100290.31;;;12.97;100.00
23417;BME280;11881;42.432;25.632;2022-10-29T05:39:56;100294.31;;;12.82;100.00
23417;BME280;11881;42.432;25.632;2022-10-29T05:42:22;100296.06;;;12.61;100.00
23417;BME280;11881;42.432;25.632;2022-10-29T05:44:47;100295.56;;;12.67;100.00
23417;BME280;11881;42.432;25.632;2022-10-29T05:47:13;100295.25;;;12.81;100.00
23417;BME280;11881;42.432;25.632;2022-10-29T05:49:38;100295.81;;;12.96;100.00
23417;BME280;11881;42.432;25.632;2022-10-29T05:52:04;100299.31;;;13.28;100.00
23417;BME280;11881;42.432;25.632;2022-10-29T05:54:29;100300.13;;;13.08;100.00
23417;BME280;11881;42.432;25.632;2022-10-29T05:56:57;100309.31;;;13.15;100.00
23417;BME280;11881;42.432;25.632;2022-10-29T05:59:22;100307.44;;;13.48;100.00
23417;BME280;11881;42.432;25.632;2022-10-29T06:01:48;100307.00;;;13.73;100.00
23417;BME280;11881;42.432;25.632;2022-10-29T06:04:13;100311.97;;;13.78;100.00
23417;BME280;11881;42.432;25.632;2022-10-29T06:06:38;100310.28;;;13.77;100.00
23417;BME280;11881;42.432;25.632;2022-10-29T06:09:04;100308.09;;;13.92;100.00
23417;BME280;11881;42.432;25.632;2022-10-29T06:11:29;100317.97;;;14.01;100.00
23417;BME280;11881;42.432;25.632;2022-10-29T06:13:55;100307.38;;;13.90;100.00
23417;BME280;11881;42.432;25.632;2022-10-29T06:16:20;100315.66;;;14.17;100.00
23417;BME280;11881;42.432;25.632;2022-10-29T06:18:46;100318.78;;;14.22;100.00
23417;BME280;11881;42.432;25.632;2022-10-29T06:21:11;100306.09;;;14.34;100.00
23417;BME280;11881;42.432;25.632;2022-10-29T06:23:37;100312.16;;;14.36;100.00
23417;BME280;11881;42.432;25.632;2022-10-29T06:26:02;100319.50;;;14.34;100.00
23417;BME280;11881;42.432;25.632;2022-10-29T06:28:28;100323.03;;;14.34;100.00
23417;BME280;11881;42.432;25.632;2022-10-29T06:30:53;100318.47;;;14.25;100.00
23417;BME280;11881;42.432;25.632;2022-10-29T06:33:19;100313.41;;;14.32;100.00
23417;BME280;11881;42.432;25.632;2022-10-29T06:35:45;100317.69;;;14.44;100.00
23417;BME280;11881;42.432;25.632;2022-10-29T06:38:11;100316.75;;;14.64;100.00
23417;BME280;11881;42.432;25.632;2022-10-29T06:40:37;100319.59;;;14.82;98.29
23417;BME280;11881;42.432;25.632;2022-10-29T06:43:05;100323.97;;;14.83;98.05
23417;BME280;11881;42.432;25.632;2022-10-29T06:45:32;100331.34;;;14.91;97.64
23417;BME280;11881;42.432;25.632;2022-10-29T06:47:58;100326.41;;;14.96;97.54
23417;BME280;11881;42.432;25.632;2022-10-29T06:50:24;100325.94;;;15.10;97.29
23417;BME280;11881;42.432;25.632;2022-10-29T06:52:54;100330.06;;;15.14;96.62
23417;BME280;11881;42.432;25.632;2022-10-29T06:55:20;100324.22;;;15.29;96.18
23417;BME280;11881;42.432;25.632;2022-10-29T06:57:45;100329.44;;;15.30;96.51
23417;BME280;11881;42.432;25.632;2022-10-29T07:00:11;100328.88;;;15.46;95.05
23417;BME280;11881;42.432;25.632;2022-10-29T07:02:36;100338.03;;;15.53;94.83
23417;BME280;11881;42.432;25.632;2022-10-29T07:05:02;100340.44;;;15.47;95.65
23417;BME280;11881;42.432;25.632;2022-10-29T07:07:28;100339.41;;;15.77;93.89
23417;BME280;11881;42.432;25.632;2022-10-29T07:09:53;100338.16;;;15.71;94.08
23417;BME280;11881;42.432;25.632;2022-10-29T07:12:19;100338.31;;;15.60;93.98
23417;BME280;11881;42.432;25.632;2022-10-29T07:14:44;100338.31;;;15.69;93.89
23417;BME280;11881;42.432;25.632;2022-10-29T07:17:09;100337.78;;;16.03;91.58
23417;BME280;11881;42.432;25.632;2022-10-29T07:19:35;100341.09;;;15.87;91.55
23417;BME280;11881;42.432;25.632;2022-10-29T07:22:00;100343.81;;;15.78;92.59
23417;BME280;11881;42.432;25.632;2022-10-29T07:24:25;100346.34;;;15.89;92.93
23417;BME280;11881;42.432;25.632;2022-10-29T07:26:51;100347.88;;;15.91;94.40
23417;BME280;11881;42.432;25.632;2022-10-29T07:29:16;100351.03;;;15.77;95.94
23417;BME280;11881;42.432;25.632;2022-10-29T07:31:42;100341.31;;;15.66;97.56
23417;BME280;11881;42.432;25.632;2022-10-29T07:34:07;100344.66;;;15.78;97.27
23417;BME280;11881;42.432;25.632;2022-10-29T07:36:32;100341.97;;;15.59;98.83
23417;BME280;11881;42.432;25.632;2022-10-29T07:38:58;100345.72;;;15.48;100.00
23417;BME280;11881;42.432;25.632;2022-10-29T07:41:24;100350.88;;;15.79;99.68
23417;BME280;11881;42.432;25.632;2022-10-29T07:43:50;100341.50;;;15.83;100.00
23417;BME280;11881;42.432;25.632;2022-10-29T07:46:15;100348.31;;;15.87;100.00
23417;BME280;11881;42.432;25.632;2022-10-29T07:48:41;100336.69;;;15.96;100.00
23417;BME280;11881;42.432;25.632;2022-10-29T07:51:06;100343.78;;;15.87;100.00
23417;BME280;11881;42.432;25.632;2022-10-29T07:53:31;100345.03;;;15.93;100.00
23417;BME280;11881;42.432;25.632;2022-10-29T07:55:57;100346.91;;;16.20;100.00
23417;BME280;11881;42.432;25.632;2022-10-29T07:58:24;100342.00;;;16.06;99.25
23417;BME280;11881;42.432;25.632;2022-10-29T08:00:50;100338.38;;;15.97;100.00
23417;BME280;11881;42.432;25.632;2022-10-29T08:03:15;100340.16;;;16.34;98.32
23417;BME280;11881;42.432;25.632;2022-10-29T08:05:41;100337.81;;;16.48;97.90
23417;BME280;11881;42.432;25.632;2022-10-29T08:08:06;100335.63;;;16.62;98.09
23417;BME280;11881;42.432;25.632;2022-10-29T08:10:33;100341.19;;;16.50;99.08
23417;BME280;11881;42.432;25.632;2022-10-29T08:13:02;100336.81;;;16.49;99.71
23417;BME280;11881;42.432;25.632;2022-10-29T08:15:29;100327.44;;;16.36;100.00
23417;BME280;11881;42.432;25.632;2022-10-29T08:17:55;100325.44;;;16.38;100.00
23417;BME280;11881;42.432;25.632;2022-10-29T08:20:23;100324.00;;;16.61;98.72
23417;BME280;11881;42.432;25.632;2022-10-29T08:22:48;100329.63;;;16.68;97.71
23417;BME280;11881;42.432;25.632;2022-10-29T08:25:15;100330.59;;;16.77;97.22
23417;BME280;11881;42.432;25.632;2022-10-29T08:27:41;100328.50;;;17.06;95.09
23417;BME280;11881;42.432;25.632;2022-10-29T08:30:09;100321.78;;;17.10;95.47
23417;BME280;11881;42.432;25.632;2022-10-29T08:32:34;100319.69;;;17.22;95.37
23417;BME280;11881;42.432;25.632;2022-10-29T08:35:00;100322.81;;;17.53;91.98
23417;BME280;11881;42.432;25.632;2022-10-29T08:37:26;100317.00;;;17.40;92.40
23417;BME280;11881;42.432;25.632;2022-10-29T08:39:51;100314.44;;;17.12;94.35
23417;BME280;11881;42.432;25.632;2022-10-29T08:50:23;100308.81;;;17.49;93.05
23417;BME280;11881;42.432;25.632;2022-10-29T08:52:50;100311.06;;;17.62;91.79
23417;BME280;11881;42.432;25.632;2022-10-29T08:55:22;100303.22;;;17.69;91.05
23417;BME280;11881;42.432;25.632;2022-10-29T08:57:53;100300.41;;;17.78;91.41
23417;BME280;11881;42.432;25.632;2022-10-29T09:00:22;100294.56;;;17.91;90.66
23417;BME280;11881;42.432;25.632;2022-10-29T09:02:58;100295.13;;;18.03;90.16
23417;BME280;11881;42.432;25.632;2022-10-29T09:16:50;100275.94;;;18.65;86.36
23417;BME280;11881;42.432;25.632;2022-10-29T09:22:18;100273.94;;;18.83;84.16
23417;BME280;11881;42.432;25.632;2022-10-29T09:30:20;100260.53;;;18.49;85.69
23417;BME280;11881;42.432;25.632;2022-10-29T09:33:05;100266.56;;;18.85;83.87
23417;BME280;11881;42.432;25.632;2022-10-29T09:35:40;100256.06;;;18.90;84.59
23417;BME280;11881;42.432;25.632;2022-10-29T09:38:33;100250.31;;;18.77;85.28
23417;BME280;11881;42.432;25.632;2022-10-29T09:41:01;100244.09;;;18.93;83.85
23417;BME280;11881;42.432;25.632;2022-10-29T09:43:36;100240.03;;;19.05;83.75
23417;BME280;11881;42.432;25.632;2022-10-29T09:51:45;100236.13;;;19.32;80.98
23417;BME280;11881;42.432;25.632;2022-10-29T09:54:13;100234.91;;;19.34;80.54
23417;BME280;11881;42.432;25.632;2022-10-29T09:56:41;100228.22;;;19.14;80.99
23417;BME280;11881;42.432;25.632;2022-10-29T09:59:27;100225.66;;;19.21;81.39
23417;BME280;11881;42.432;25.632;2022-10-29T10:01:54;100212.28;;;19.35;81.44
23417;BME280;11881;42.432;25.632;2022-10-29T10:04:26;100218.34;;;19.46;81.59
23417;BME280;11881;42.432;25.632;2022-10-29T10:07:01;100207.22;;;19.32;81.42
23417;BME280;11881;42.432;25.632;2022-10-29T10:09:27;100204.50;;;19.49;80.68
23417;BME280;11881;42.432;25.632;2022-10-29T10:11:53;100192.63;;;19.66;80.38
23417;BME280;11881;42.432;25.632;2022-10-29T10:14:23;100186.94;;;19.92;77.79
23417;BME280;11881;42.432;25.632;2022-10-29T10:16:59;100191.09;;;20.03;78.41
23417;BME280;11881;42.432;25.632;2022-10-29T10:19:28;100184.34;;;19.67;77.68
23417;BME280;11881;42.432;25.632;2022-10-29T10:21:56;100174.38;;;19.68;78.16
23417;BME280;11881;42.432;25.632;2022-10-29T10:24:34;100182.13;;;20.02;76.90
23417;BME280;11881;42.432;25.632;2022-10-29T10:27:01;100176.03;;;20.00;75.85
23417;BME280;11881;42.432;25.632;2022-10-29T10:32:30;100163.06;;;19.96;74.63
23417;BME280;11881;42.432;25.632;2022-10-29T10:34:55;100160.63;;;20.09;75.38
23417;BME280;11881;42.432;25.632;2022-10-29T10:37:21;100156.53;;;20.13;75.44
23417;BME280;11881;42.432;25.632;2022-10-29T10:40:02;100153.88;;;20.28;75.02
23417;BME280;11881;42.432;25.632;2022-10-29T10:42:38;100154.56;;;20.07;73.60
23417;BME280;11881;42.432;25.632;2022-10-29T10:47:50;100151.69;;;20.31;71.82
23417;BME280;11881;42.432;25.632;2022-10-29T10:52:44;100138.44;;;20.36;72.06
23417;BME280;11881;42.432;25.632;2022-10-29T10:55:30;100140.25;;;20.44;71.07
23417;BME280;11881;42.432;25.632;2022-10-29T10:58:57;100142.56;;;20.55;70.66
23417;BME280;11881;42.432;25.632;2022-10-29T11:01:04;100134.09;;;20.27;71.32
23417;BME280;11881;42.432;25.632;2022-10-29T11:03:38;100131.34;;;20.12;73.54
23417;BME280;11881;42.432;25.632;2022-10-29T11:06:11;100122.94;;;20.07;72.02
23417;BME280;11881;42.432;25.632;2022-10-29T11:13:41;100119.97;;;20.17;72.63
23417;BME280;11881;42.432;25.632;2022-10-29T11:16:14;100116.38;;;20.02;72.67
23417;BME280;11881;42.432;25.632;2022-10-29T11:21:37;100104.75;;;20.16;69.41
23417;BME280;11881;42.432;25.632;2022-10-29T11:24:13;100112.56;;;20.11;70.28
23417;BME280;11881;42.432;25.632;2022-10-29T11:30:05;100091.19;;;20.01;71.38
23417;BME280;11881;42.432;25.632;2022-10-29T11:38:21;100082.78;;;19.96;64.54
23417;BME280;11881;42.432;25.632;2022-10-29T11:40:53;100071.13;;;19.96;64.44
23417;BME280;11881;42.432;25.632;2022-10-29T11:43:22;100071.56;;;19.99;64.96
23417;BME280;11881;42.432;25.632;2022-10-29T11:48:31;100058.31;;;19.89;66.71
23417;BME280;11881;42.432;25.632;2022-10-29T11:51:19;100063.72;;;19.89;67.62
23417;BME280;11881;42.432;25.632;2022-10-29T12:02:04;100043.34;;;19.79;67.43
23417;BME280;11881;42.432;25.632;2022-10-29T12:05:03;100052.09;;;19.81;64.87
23417;BME280;11881;42.432;25.632;2022-10-29T12:07:31;100047.13;;;19.92;63.92
23417;BME280;11881;42.432;25.632;2022-10-29T12:10:29;100042.66;;;20.00;64.37
23417;BME280;11881;42.432;25.632;2022-10-29T12:15:36;100041.41;;;19.87;67.49
23417;BME280;11881;42.432;25.632;2022-10-29T12:26:09;100029.72;;;19.95;62.95
23417;BME280;11881;42.432;25.632;2022-10-29T12:31:28;100015.19;;;19.88;62.83
23417;BME280;11881;42.432;25.632;2022-10-29T12:34:04;100014.00;;;19.90;62.29
23417;BME280;11881;42.432;25.632;2022-10-29T12:37:04;100017.91;;;19.88;62.43
23417;BME280;11881;42.432;25.632;2022-10-29T12:39:29;100013.16;;;19.90;62.25
23417;BME280;11881;42.432;25.632;2022-10-29T12:42:06;100017.44;;;20.07;61.47
23417;BME280;11881;42.432;25.632;2022-10-29T12:44:48;100012.38;;;20.04;61.55
23417;BME280;11881;42.432;25.632;2022-10-29T12:52:21;100005.94;;;20.05;60.91
23417;BME280;11881;42.432;25.632;2022-10-29T12:54:49;100008.47;;;20.07;60.21
23417;BME280;11881;42.432;25.632;2022-10-29T12:57:18;100001.00;;;20.09;59.50
23417;BME280;11881;42.432;25.632;2022-10-29T12:59:47;100007.06;;;20.11;59.61
23417;BME280;11881;42.432;25.632;2022-10-29T13:07:36;99989.63;;;20.13;60.43
23417;BME280;11881;42.432;25.632;2022-10-29T13:13:17;99985.22;;;19.98;62.33
23417;BME280;11881;42.432;25.632;2022-10-29T13:15:58;99987.06;;;19.97;60.88
23417;BME280;11881;42.432;25.632;2022-10-29T13:20:59;99977.63;;;19.93;62.67
23417;BME280;11881;42.432;25.632;2022-10-29T13:23:34;99971.19;;;19.94;60.94
23417;BME280;11881;42.432;25.632;2022-10-29T13:26:03;99966.72;;;19.86;62.33
23417;BME280;11881;42.432;25.632;2022-10-29T13:41:15;99966.66;;;19.95;61.35
23417;BME280;11881;42.432;25.632;2022-10-29T13:44:02;99966.28;;;19.98;60.25
23417;BME280;11881;42.432;25.632;2022-10-29T13:52:21;99954.50;;;19.90;60.04
23417;BME280;11881;42.432;25.632;2022-10-29T13:54:59;99957.22;;;19.90;60.37
23417;BME280;11881;42.432;25.632;2022-10-29T13:59:57;99954.97;;;19.94;60.13
23417;BME280;11881;42.432;25.632;2022-10-29T14:02:47;99951.25;;;19.95;60.73
23417;BME280;11881;42.432;25.632;2022-10-29T14:05:31;99952.75;;;19.98;59.97
23417;BME280;11881;42.432;25.632;2022-10-29T14:13:28;99941.03;;;19.82;60.73
23417;BME280;11881;42.432;25.632;2022-10-29T14:18:46;99938.91;;;19.78;59.85
23417;BME280;11881;42.432;25.632;2022-10-29T14:21:18;99940.63;;;19.71;61.01
23417;BME280;11881;42.432;25.632;2022-10-29T14:23:59;99941.84;;;19.68;61.28
23417;BME280;11881;42.432;25.632;2022-10-29T14:26:27;99942.88;;;19.67;60.92
23417;BME280;11881;42.432;25.632;2022-10-29T14:28:53;99939.16;;;19.68;61.04
23417;BME280;11881;42.432;25.632;2022-10-29T14:31:24;99940.00;;;19.69;61.09
23417;BME280;11881;42.432;25.632;2022-10-29T14:41:29;99939.97;;;19.46;63.79
23417;BME280;11881;42.432;25.632;2022-10-29T14:44:03;99940.38;;;19.34;65.24
23417;BME280;11881;42.432;25.632;2022-10-29T14:46:31;99943.47;;;19.31;64.75
23417;BME280;11881;42.432;25.632;2022-10-29T14:49:12;99943.09;;;19.34;63.81
23417;BME280;11881;42.432;25.632;2022-10-29T14:51:47;99949.84;;;19.30;64.42
23417;BME280;11881;42.432;25.632;2022-10-29T14:54:21;99935.06;;;19.18;66.95
23417;BME280;11881;42.432;25.632;2022-10-29T14:56:50;99939.19;;;19.06;68.32
23417;BME280;11881;42.432;25.632;2022-10-29T14:59:20;99941.16;;;18.89;69.80
23417;BME280;11881;42.432;25.632;2022-10-29T15:01:49;99938.69;;;18.79;71.10
23417;BME280;11881;42.432;25.632;2022-10-29T15:04:18;99940.94;;;18.68;72.75
23417;BME280;11881;42.432;25.632;2022-10-29T15:06:44;99939.59;;;18.55;73.11
23417;BME280;11881;42.432;25.632;2022-10-29T15:09:13;99934.56;;;18.44;74.78
23417;BME280;11881;42.432;25.632;2022-10-29T15:14:35;99936.97;;;18.15;77.70
23417;BME280;11881;42.432;25.632;2022-10-29T15:17:08;99940.03;;;18.12;77.75
23417;BME280;11881;42.432;25.632;2022-10-29T15:19:35;99948.81;;;17.89;78.79
23417;BME280;11881;42.432;25.632;2022-10-29T15:22:06;99943.09;;;17.92;79.19
23417;BME280;11881;42.432;25.632;2022-10-29T15:24:32;99950.34;;;17.84;79.57
23417;BME280;11881;42.432;25.632;2022-10-29T15:26:58;99949.28;;;17.68;80.33
23417;BME280;11881;42.432;25.632;2022-10-29T15:29:26;99957.72;;;17.65;79.91